Ketlin — LMRJ — position and weather

sailwx.info

Track history (hours):
 
Tides and Currents Weather Stations Pressure Air Temp Water Temp Dewpoint Dewpoint Depression Visibility Wind Speed Wind Dir Waves Ship Positions

Ketlin

Last reported at 2018-Jul-04 08:15 UTC. Time now 2018-Aug-14 19:28 UTC.
Position N 68°45' E 015°08'.
Warning: this ship's position is 41 days out of date.

Length 48 m; draft 5.8 m.

Type: Fishing. MMSI: 258262000.

Date/timePositionNaut miles runAvg speedWind from/ knotsBaromVisibWave heightAir tempDewpointWater temp
2018-Jul-04 08:15N 68°45' E 015°08'0 0.0
2018-Jul-04 08:00N 68°45' E 015°08'0 0.0
2018-Jul-04 07:30N 68°45' E 015°08'0 0.0
2018-Jul-04 07:00N 68°45' E 015°08'0 0.0
2018-Jul-04 06:29N 68°45' E 015°08'0 0.0
2018-Jul-04 06:00N 68°45' E 015°08'0 0.0
2018-Jul-04 05:30N 68°45' E 015°08'0 0.0
2018-Jul-04 04:59N 68°45' E 015°08'2 3.9
2018-Jul-04 04:30N 68°43' E 015°04'510.9
2018-Jul-04 04:00N 68°40' E 014°52'5 9.9
2018-Jul-04 03:29N 68°36' E 014°44'510.4
2018-Jul-04 03:00N 68°35' E 014°57'5 9.6
2018-Jul-04 02:30N 68°32' E 015°08'5 9.5
2018-Jul-04 02:00N 68°27' E 015°11'611.4
2018-Jul-04 01:30N 68°22' E 015°03'510.1
2018-Jul-04 01:00N 68°17' E 014°58'510.5
2018-Jul-04 00:30N 68°12' E 014°54'510.5
2018-Jul-04 00:00N 68°07' E 014°52'510.3
2018-Jul-03 23:30N 68°02' E 014°49'510.5
2018-Jul-03 22:59N 67°57' E 014°45'510.7
2018-Jul-03 22:30N 67°52' E 014°43'611.0
2018-Jul-03 21:59N 67°48' E 014°32'611.2
2018-Jul-03 21:29N 67°42' E 014°31'511.1
2018-Jul-03 21:00N 67°37' E 014°31'611.3
2018-Jul-03 20:31N 67°31' E 014°29'510.9
2018-Jul-03 20:01N 67°26' E 014°27'510.8
2018-Jul-03 19:31N 67°21' E 014°22'611.1
2018-Jul-03 19:01N 67°16' E 014°14'510.9
2018-Jul-03 18:31N 67°12' E 014°06'611.4
2018-Jul-03 18:01N 67°07' E 013°59'611.3
2018-Jul-03 17:30N 67°02' E 013°49'611.3
2018-Jul-03 17:01N 66°59' E 013°37'5 9.3
2018-Jul-03 16:30N 66°56' E 013°30'510.5
2018-Jul-03 16:00N 66°52' E 013°21'611.0
2018-Jul-03 15:30N 66°47' E 013°14'611.2
2018-Jul-03 15:01N 66°42' E 013°09'611.1
2018-Jul-03 14:31N 66°37' E 013°05'510.6
2018-Jul-03 14:00N 66°32' E 012°58'611.5
2018-Jul-03 13:30N 66°26' E 012°59'611.5
2018-Jul-03 13:00N 66°20' E 012°57'511.0
2018-Jul-03 12:30N 66°15' E 012°54'611.5
2018-Jul-03 12:00N 66°10' E 012°50'611.9
2018-Jul-03 11:29N 66°05' E 012°40'611.8
2018-Jul-03 11:00N 66°00' E 012°31'611.5
2018-Jul-03 10:31N 65°55' E 012°24'611.1
2018-Jul-03 10:00N 65°50' E 012°21'511.1
2018-Jul-03 09:30N 65°45' E 012°17'611.4
2018-Jul-03 09:00N 65°39' E 012°13'511.0
2018-Jul-03 08:30N 65°34' E 012°07'611.3
2018-Jul-03 08:00N 65°29' E 011°60'510.0
2018-Jul-03 07:29N 65°24' E 011°58'5 9.5
2018-Jul-03 07:00N 65°20' E 012°01'611.3
2018-Jul-03 06:30N 65°15' E 011°56'611.0
2018-Jul-03 06:00N 65°10' E 011°50'511.3
2018-Jul-03 05:31N 65°05' E 011°46'510.7
2018-Jul-03 05:00N 65°00' E 011°38'610.9
2018-Jul-03 04:29N 64°57' E 011°28'511.1
2018-Jul-03 04:00N 64°53' E 011°18'510.1
2018-Jul-03 03:30N 64°50' E 011°10'611.7
2018-Jul-03 03:00N 64°45' E 011°01'611.5
2018-Jul-03 02:30N 64°41' E 010°51'611.5
2018-Jul-03 02:01N 64°38' E 010°41'611.7
2018-Jul-03 01:30N 64°34' E 010°31'611.4
2018-Jul-03 00:58N 64°29' E 010°21'511.1
2018-Jul-03 00:31N 64°26' E 010°12'611.1
2018-Jul-03 00:00N 64°21' E 010°04'611.5
2018-Jul-02 23:30N 64°17' E 009°55'611.7
2018-Jul-02 23:00N 64°13' E 009°45'611.8
2018-Jul-02 22:30N 64°09' E 009°36'612.0
2018-Jul-02 22:00N 64°04' E 009°27'612.0
2018-Jul-02 21:30N 63°60' E 009°18'612.1
2018-Jul-02 21:00N 63°55' E 009°08'611.9
2018-Jul-02 20:30N 63°53' E 008°56'611.8
2018-Jul-02 20:01N 63°51' E 008°44'611.4
2018-Jul-02 19:31N 63°49' E 008°32'611.1
2018-Jul-02 19:00N 63°46' E 008°21'511.1
2018-Jul-02 18:30N 63°43' E 008°10'611.3
2018-Jul-02 18:00N 63°40' E 007°59'611.3
2018-Jul-02 17:29N 63°36' E 007°50'611.6
2018-Jul-02 17:00N 63°32' E 007°41'611.3
2018-Jul-02 16:30N 63°28' E 007°32'611.4
2018-Jul-02 16:00N 63°24' E 007°24'611.8
2018-Jul-02 15:31N 63°19' E 007°15'611.6
2018-Jul-02 15:00N 63°15' E 007°07'611.2
2018-Jul-02 14:30N 63°11' E 006°58'611.5
2018-Jul-02 13:59N 63°07' E 006°48'511.2
2018-Jul-02 13:30N 63°03' E 006°40'611.2
2018-Jul-02 13:00N 62°59' E 006°32'611.6
2018-Jul-02 12:30N 62°55' E 006°23'611.3
2018-Jul-02 12:00N 62°51' E 006°14'611.6
2018-Jul-02 11:30N 62°46' E 006°05'611.9
2018-Jul-02 11:00N 62°42' E 005°57'612.0
2018-Jul-02 10:30N 62°37' E 005°48'612.1
2018-Jul-02 10:00N 62°33' E 005°39'612.1
2018-Jul-02 09:30N 62°29' E 005°30'611.2
2018-Jul-02 09:00N 62°24' E 005°22'611.4
2018-Jul-02 08:30N 62°20' E 005°14'611.6
2018-Jul-02 08:00N 62°15' E 005°09'611.4
2018-Jul-02 07:30N 62°09' E 005°04'611.5
2018-Jul-02 07:00N 62°04' E 005°07'611.4
2018-Jul-02 06:30N 61°58' E 005°09'4 7.2
2018-Jul-02 06:01N 61°55' E 005°07'610.6
2018-Jul-02 05:29N 61°51' E 005°16'5 9.8
2018-Jul-02 05:01N 61°48' E 005°08'4 8.2
2018-Jul-02 04:30N 61°47' E 005°00'0 0.2
2018-Jul-02 04:00N 61°47' E 005°00'0 0.2
2018-Jul-02 03:30N 61°47' E 005°01'0 0.1
2018-Jul-02 03:00N 61°47' E 005°01'0 0.2
2018-Jul-02 02:30N 61°47' E 005°01'0 1.0
2018-Jul-02 02:00N 61°46' E 004°60'5 9.9
2018-Jul-02 01:30N 61°43' E 004°51'5 9.7
2018-Jul-02 01:00N 61°42' E 004°42'5 9.6
2018-Jul-02 00:30N 61°41' E 004°32'5 9.3
2018-Jul-02 00:00N 61°38' E 004°24'109 6.8
2018-Jul-01 08:03N 59°56' E 003°08'1 9.1
2018-Jul-01 07:57N 59°55' E 003°09'49 4.2
2018-Jun-30 20:17N 59°17' E 002°08'3 9.4
2018-Jun-30 20:01N 59°15' E 002°04'6 9.3
2018-Jun-30 19:23N 59°11' E 001°56'4 9.6
2018-Jun-30 18:58N 59°09' E 001°50'4 9.5
2018-Jun-30 18:30N 59°05' E 001°45'5 9.5
2018-Jun-30 18:01N 59°01' E 001°43'5 9.8
2018-Jun-30 17:29N 58°56' E 001°42'6 9.6
2018-Jun-30 16:49N 58°49' E 001°39'3 9.5
2018-Jun-30 16:29N 58°46' E 001°38'4 9.4
2018-Jun-30 16:01N 58°42' E 001°35'5 9.3
2018-Jun-30 15:30N 58°37' E 001°34'5 9.1
2018-Jun-30 15:00N 58°33' E 001°34'5 9.0
2018-Jun-30 14:27N 58°28' E 001°33'5 8.8
2018-Jun-30 13:52N 58°23' E 001°38'58 4.5
2018-Jun-30 01:01N 58°40' E 003°24'0 9.3
2018-Jun-30 01:00N 58°40' E 003°24'5 9.1
2018-Jun-30 00:28N 58°39' E 003°34'4 8.9
2018-Jun-30 00:00N 58°38' E 003°41'18 9.5
2018-Jun-29 22:08N 58°34' E 004°15'210.1
2018-Jun-29 21:56N 58°34' E 004°19'510.4
2018-Jun-29 21:27N 58°33' E 004°28'410.3
2018-Jun-29 21:01N 58°32' E 004°36'610.2
2018-Jun-29 20:23N 58°31' E 004°48'1410.5
2018-Jun-29 19:05N 58°27' E 005°14'210.7
2018-Jun-29 18:54N 58°27' E 005°18'410.8
2018-Jun-29 18:31N 58°26' E 005°25'510.6
2018-Jun-29 18:00N 58°25' E 005°35'5 9.6
2018-Jun-29 17:30N 58°24' E 005°44'2 4.4
2018-Jun-29 17:00N 58°24' E 005°49'2 4.5
2018-Jun-29 16:30N 58°24' E 005°53'3 6.8
2018-Jun-29 16:01N 58°24' E 005°59'2 4.9
2018-Jun-29 15:30N 58°27' E 005°59'0 0.1
2018-Jun-29 15:01N 58°27' E 005°59'0 0.0
2018-Jun-29 14:31N 58°27' E 005°59'1 1.1
2018-Jun-29 14:00N 58°27' E 005°60'0 0.1
2018-Jun-29 13:30N 58°27' E 005°60'0 0.0
2018-Jun-29 13:01N 58°27' E 005°60'0 0.0
2018-Jun-29 12:31N 58°27' E 005°60'0 0.0
2018-Jun-29 12:00N 58°27' E 005°60'0 0.0
2018-Jun-29 11:30N 58°27' E 005°60'0 0.0
2018-Jun-29 11:01N 58°27' E 005°60'0 0.0
2018-Jun-29 10:30N 58°27' E 005°60'0 0.0
2018-Jun-29 10:01N 58°27' E 005°60'0 0.0
2018-Jun-29 09:31N 58°27' E 005°60'0 0.0
2018-Jun-29 09:00N 58°27' E 005°60'0 0.0
2018-Jun-29 08:31N 58°27' E 005°60'0 0.0
2018-Jun-29 08:01N 58°27' E 005°60'2 4.4
2018-Jun-29 07:31N 58°25' E 005°60'510.0
2018-Jun-29 07:01N 58°26' E 005°50'611.6
2018-Jun-29 06:30N 58°29' E 005°41'611.1
2018-Jun-29 06:01N 58°32' E 005°32'510.8
2018-Jun-29 05:31N 58°35' E 005°24'611.4
2018-Jun-29 05:00N 58°39' E 005°15'611.7
2018-Jun-29 04:29N 58°43' E 005°06'611.8
2018-Jun-29 04:00N 58°46' E 004°58'611.6
2018-Jun-29 03:28N 58°51' E 004°49'611.9
2018-Jun-29 03:00N 58°55' E 004°42'1611.8
2018-Jun-29 01:41N 59°06' E 004°21'211.3
2018-Jun-29 01:28N 59°08' E 004°18'47 3.3
2018-Jun-28 11:15N 59°29' E 002°57'3 6.3
2018-Jun-28 10:46N 59°26' E 002°58'0 0.0
2018-Jun-28 09:34N 59°26' E 002°58'0 1.0
2018-Jun-28 09:24N 59°26' E 002°58'2 3.2
2018-Jun-28 08:38N 59°28' E 003°01'2 8.4
2018-Jun-28 08:24N 59°28' E 003°04'4 7.8
2018-Jun-28 07:55N 59°28' E 002°57'2 4.7
2018-Jun-28 07:30N 59°26' E 002°57'1 1.8
2018-Jun-28 06:48N 59°26' E 002°59'3 7.2
2018-Jun-28 06:23N 59°27' E 002°54'510.1
2018-Jun-28 05:56N 59°29' E 002°45'1 2.3
2018-Jun-28 05:27N 59°28' E 002°43'0 0.4
2018-Jun-28 04:44N 59°28' E 002°43'0 0.4
2018-Jun-28 04:30N 59°28' E 002°42'0 0.5
2018-Jun-28 04:00N 59°28' E 002°42'0 0.5
2018-Jun-28 03:30N 59°28' E 002°42'0 0.5
2018-Jun-28 03:01N 59°28' E 002°41'0 0.6
2018-Jun-28 02:30N 59°28' E 002°41'0 0.6
2018-Jun-28 02:01N 59°29' E 002°40'0 0.7
2018-Jun-28 01:30N 59°29' E 002°39'0 0.7
2018-Jun-28 01:00N 59°29' E 002°39'0 0.6
2018-Jun-28 00:27N 59°29' E 002°38'0 0.6
2018-Jun-27 23:38N 59°29' E 002°37'1 0.4
2018-Jun-27 21:45N 59°29' E 002°36'0 0.4
2018-Jun-27 21:21N 59°28' E 002°35'0 0.5
2018-Jun-27 20:53N 59°28' E 002°35'3 1.7
2018-Jun-27 19:10N 59°31' E 002°32'0 1.0
2018-Jun-27 18:57N 59°30' E 002°32'0 0.5
2018-Jun-27 18:24N 59°30' E 002°32'0 0.5
2018-Jun-27 17:54N 59°30' E 002°32'1 1.2
2018-Jun-27 17:27N 59°30' E 002°33'9 8.1
2018-Jun-27 16:22N 59°31' E 002°50'149 6.8
2018-Jun-26 18:23N 61°52' E 004°25'411.1
2018-Jun-26 18:00N 61°56' E 004°31'611.3
2018-Jun-26 17:30N 61°60' E 004°39'1110.9
2018-Jun-26 16:30N 62°08' E 004°54'510.5
2018-Jun-26 16:00N 62°12' E 005°02'610.6
2018-Jun-26 15:29N 62°15' E 005°11'510.8
2018-Jun-26 15:00N 62°19' E 005°19'510.4
2018-Jun-26 14:30N 62°22' E 005°28'4 7.5
2018-Jun-26 13:59N 62°22' E 005°36'2 3.5
2018-Jun-26 13:30N 62°20' E 005°38'0 0.1
2018-Jun-26 13:00N 62°20' E 005°38'0 0.0
2018-Jun-26 12:31N 62°20' E 005°38'0 0.0
2018-Jun-26 12:00N 62°20' E 005°38'0 0.0
2018-Jun-26 11:28N 62°20' E 005°38'0 0.0
2018-Jun-26 11:01N 62°20' E 005°38'0 0.0
2018-Jun-26 10:31N 62°20' E 005°38'0 0.0
2018-Jun-26 10:00N 62°20' E 005°38'0 0.0
2018-Jun-26 09:30N 62°20' E 005°38'0 0.0
2018-Jun-26 09:00N 62°20' E 005°38'0 0.0
2018-Jun-26 08:30N 62°20' E 005°38'0 0.0
2018-Jun-26 08:00N 62°20' E 005°38'0 0.0
2018-Jun-26 07:30N 62°20' E 005°38'0 0.0
2018-Jun-26 07:00N 62°20' E 005°38'0 0.0
2018-Jun-26 06:31N 62°20' E 005°38'0 0.0
2018-Jun-26 06:00N 62°20' E 005°38'0 0.0
2018-Jun-26 05:30N 62°20' E 005°38'0 0.0
2018-Jun-26 05:00N 62°20' E 005°38'2 3.1
2018-Jun-26 04:30N 62°22' E 005°36'510.1
2018-Jun-26 04:00N 62°22' E 005°25'611.2
2018-Jun-26 03:29N 62°19' E 005°16'511.4
2018-Jun-26 03:00N 62°15' E 005°08'611.8
2018-Jun-26 02:29N 62°10' E 004°59'611.8
2018-Jun-26 02:00N 62°06' E 004°52'611.5
2018-Jun-26 01:30N 62°01' E 004°45'611.1
2018-Jun-26 01:00N 61°57' E 004°37'611.6
2018-Jun-26 00:30N 61°52' E 004°30'  
Track history (hours):
 
Tides and Currents Weather Stations Pressure Air Temp Water Temp Dewpoint Dewpoint Depression Visibility Wind Speed Wind Dir Waves Ship Positions

Ketlin

Last reported at 2018-Jul-04 08:15 UTC. Time now 2018-Aug-14 19:28 UTC.
Position N 68°45' E 015°08'.
Warning: this ship's position is 41 days out of date.

Length 48 m; draft 5.8 m.

Type: Fishing. MMSI: 258262000.

Date/timePositionNaut miles runAvg speedWind from/ knotsBaromVisibWave heightAir tempDewpointWater temp
2018-Jul-04 08:15N 68°45' E 015°08'0 0.0
2018-Jul-04 08:00N 68°45' E 015°08'0 0.0
2018-Jul-04 07:30N 68°45' E 015°08'0 0.0
2018-Jul-04 07:00N 68°45' E 015°08'0 0.0
2018-Jul-04 06:29N 68°45' E 015°08'0 0.0
2018-Jul-04 06:00N 68°45' E 015°08'0 0.0
2018-Jul-04 05:30N 68°45' E 015°08'0 0.0
2018-Jul-04 04:59N 68°45' E 015°08'2 3.9
2018-Jul-04 04:30N 68°43' E 015°04'510.9
2018-Jul-04 04:00N 68°40' E 014°52'5 9.9
2018-Jul-04 03:29N 68°36' E 014°44'510.4
2018-Jul-04 03:00N 68°35' E 014°57'5 9.6
2018-Jul-04 02:30N 68°32' E 015°08'5 9.5
2018-Jul-04 02:00N 68°27' E 015°11'611.4
2018-Jul-04 01:30N 68°22' E 015°03'510.1
2018-Jul-04 01:00N 68°17' E 014°58'510.5
2018-Jul-04 00:30N 68°12' E 014°54'510.5
2018-Jul-04 00:00N 68°07' E 014°52'510.3
2018-Jul-03 23:30N 68°02' E 014°49'510.5
2018-Jul-03 22:59N 67°57' E 014°45'510.7
2018-Jul-03 22:30N 67°52' E 014°43'611.0
2018-Jul-03 21:59N 67°48' E 014°32'611.2
2018-Jul-03 21:29N 67°42' E 014°31'511.1
2018-Jul-03 21:00N 67°37' E 014°31'611.3
2018-Jul-03 20:31N 67°31' E 014°29'510.9
2018-Jul-03 20:01N 67°26' E 014°27'510.8
2018-Jul-03 19:31N 67°21' E 014°22'611.1
2018-Jul-03 19:01N 67°16' E 014°14'510.9
2018-Jul-03 18:31N 67°12' E 014°06'611.4
2018-Jul-03 18:01N 67°07' E 013°59'611.3
2018-Jul-03 17:30N 67°02' E 013°49'611.3
2018-Jul-03 17:01N 66°59' E 013°37'5 9.3
2018-Jul-03 16:30N 66°56' E 013°30'510.5
2018-Jul-03 16:00N 66°52' E 013°21'611.0
2018-Jul-03 15:30N 66°47' E 013°14'611.2
2018-Jul-03 15:01N 66°42' E 013°09'611.1
2018-Jul-03 14:31N 66°37' E 013°05'510.6
2018-Jul-03 14:00N 66°32' E 012°58'611.5
2018-Jul-03 13:30N 66°26' E 012°59'611.5
2018-Jul-03 13:00N 66°20' E 012°57'511.0
2018-Jul-03 12:30N 66°15' E 012°54'611.5
2018-Jul-03 12:00N 66°10' E 012°50'611.9
2018-Jul-03 11:29N 66°05' E 012°40'611.8
2018-Jul-03 11:00N 66°00' E 012°31'611.5
2018-Jul-03 10:31N 65°55' E 012°24'611.1
2018-Jul-03 10:00N 65°50' E 012°21'511.1
2018-Jul-03 09:30N 65°45' E 012°17'611.4
2018-Jul-03 09:00N 65°39' E 012°13'511.0
2018-Jul-03 08:30N 65°34' E 012°07'611.3
2018-Jul-03 08:00N 65°29' E 011°60'510.0
2018-Jul-03 07:29N 65°24' E 011°58'5 9.5
2018-Jul-03 07:00N 65°20' E 012°01'611.3
2018-Jul-03 06:30N 65°15' E 011°56'611.0
2018-Jul-03 06:00N 65°10' E 011°50'511.3
2018-Jul-03 05:31N 65°05' E 011°46'510.7
2018-Jul-03 05:00N 65°00' E 011°38'610.9
2018-Jul-03 04:29N 64°57' E 011°28'511.1
2018-Jul-03 04:00N 64°53' E 011°18'510.1
2018-Jul-03 03:30N 64°50' E 011°10'611.7
2018-Jul-03 03:00N 64°45' E 011°01'611.5
2018-Jul-03 02:30N 64°41' E 010°51'611.5
2018-Jul-03 02:01N 64°38' E 010°41'611.7
2018-Jul-03 01:30N 64°34' E 010°31'611.4
2018-Jul-03 00:58N 64°29' E 010°21'511.1
2018-Jul-03 00:31N 64°26' E 010°12'611.1
2018-Jul-03 00:00N 64°21' E 010°04'611.5
2018-Jul-02 23:30N 64°17' E 009°55'611.7
2018-Jul-02 23:00N 64°13' E 009°45'611.8
2018-Jul-02 22:30N 64°09' E 009°36'612.0
2018-Jul-02 22:00N 64°04' E 009°27'612.0
2018-Jul-02 21:30N 63°60' E 009°18'612.1
2018-Jul-02 21:00N 63°55' E 009°08'611.9
2018-Jul-02 20:30N 63°53' E 008°56'611.8
2018-Jul-02 20:01N 63°51' E 008°44'611.4
2018-Jul-02 19:31N 63°49' E 008°32'611.1
2018-Jul-02 19:00N 63°46' E 008°21'511.1
2018-Jul-02 18:30N 63°43' E 008°10'611.3
2018-Jul-02 18:00N 63°40' E 007°59'611.3
2018-Jul-02 17:29N 63°36' E 007°50'611.6
2018-Jul-02 17:00N 63°32' E 007°41'611.3
2018-Jul-02 16:30N 63°28' E 007°32'611.4
2018-Jul-02 16:00N 63°24' E 007°24'611.8
2018-Jul-02 15:31N 63°19' E 007°15'611.6
2018-Jul-02 15:00N 63°15' E 007°07'611.2
2018-Jul-02 14:30N 63°11' E 006°58'611.5
2018-Jul-02 13:59N 63°07' E 006°48'511.2
2018-Jul-02 13:30N 63°03' E 006°40'611.2
2018-Jul-02 13:00N 62°59' E 006°32'611.6
2018-Jul-02 12:30N 62°55' E 006°23'611.3
2018-Jul-02 12:00N 62°51' E 006°14'611.6
2018-Jul-02 11:30N 62°46' E 006°05'611.9
2018-Jul-02 11:00N 62°42' E 005°57'612.0
2018-Jul-02 10:30N 62°37' E 005°48'612.1
2018-Jul-02 10:00N 62°33' E 005°39'612.1
2018-Jul-02 09:30N 62°29' E 005°30'611.2
2018-Jul-02 09:00N 62°24' E 005°22'611.4
2018-Jul-02 08:30N 62°20' E 005°14'611.6
2018-Jul-02 08:00N 62°15' E 005°09'611.4
2018-Jul-02 07:30N 62°09' E 005°04'611.5
2018-Jul-02 07:00N 62°04' E 005°07'611.4
2018-Jul-02 06:30N 61°58' E 005°09'4 7.2
2018-Jul-02 06:01N 61°55' E 005°07'610.6
2018-Jul-02 05:29N 61°51' E 005°16'5 9.8
2018-Jul-02 05:01N 61°48' E 005°08'4 8.2
2018-Jul-02 04:30N 61°47' E 005°00'0 0.2
2018-Jul-02 04:00N 61°47' E 005°00'0 0.2
2018-Jul-02 03:30N 61°47' E 005°01'0 0.1
2018-Jul-02 03:00N 61°47' E 005°01'0 0.2
2018-Jul-02 02:30N 61°47' E 005°01'0 1.0
2018-Jul-02 02:00N 61°46' E 004°60'5 9.9
2018-Jul-02 01:30N 61°43' E 004°51'5 9.7
2018-Jul-02 01:00N 61°42' E 004°42'5 9.6
2018-Jul-02 00:30N 61°41' E 004°32'5 9.3
2018-Jul-02 00:00N 61°38' E 004°24'109 6.8
2018-Jul-01 08:03N 59°56' E 003°08'1 9.1
2018-Jul-01 07:57N 59°55' E 003°09'49 4.2
2018-Jun-30 20:17N 59°17' E 002°08'3 9.4
2018-Jun-30 20:01N 59°15' E 002°04'6 9.3
2018-Jun-30 19:23N 59°11' E 001°56'4 9.6
2018-Jun-30 18:58N 59°09' E 001°50'4 9.5
2018-Jun-30 18:30N 59°05' E 001°45'5 9.5
2018-Jun-30 18:01N 59°01' E 001°43'5 9.8
2018-Jun-30 17:29N 58°56' E 001°42'6 9.6
2018-Jun-30 16:49N 58°49' E 001°39'3 9.5
2018-Jun-30 16:29N 58°46' E 001°38'4 9.4
2018-Jun-30 16:01N 58°42' E 001°35'5 9.3
2018-Jun-30 15:30N 58°37' E 001°34'5 9.1
2018-Jun-30 15:00N 58°33' E 001°34'5 9.0
2018-Jun-30 14:27N 58°28' E 001°33'5 8.8
2018-Jun-30 13:52N 58°23' E 001°38'58 4.5
2018-Jun-30 01:01N 58°40' E 003°24'0 9.3
2018-Jun-30 01:00N 58°40' E 003°24'5 9.1
2018-Jun-30 00:28N 58°39' E 003°34'4 8.9
2018-Jun-30 00:00N 58°38' E 003°41'18 9.5
2018-Jun-29 22:08N 58°34' E 004°15'210.1
2018-Jun-29 21:56N 58°34' E 004°19'510.4
2018-Jun-29 21:27N 58°33' E 004°28'410.3
2018-Jun-29 21:01N 58°32' E 004°36'610.2
2018-Jun-29 20:23N 58°31' E 004°48'1410.5
2018-Jun-29 19:05N 58°27' E 005°14'210.7
2018-Jun-29 18:54N 58°27' E 005°18'410.8
2018-Jun-29 18:31N 58°26' E 005°25'510.6
2018-Jun-29 18:00N 58°25' E 005°35'5 9.6
2018-Jun-29 17:30N 58°24' E 005°44'2 4.4
2018-Jun-29 17:00N 58°24' E 005°49'2 4.5
2018-Jun-29 16:30N 58°24' E 005°53'3 6.8
2018-Jun-29 16:01N 58°24' E 005°59'2 4.9
2018-Jun-29 15:30N 58°27' E 005°59'0 0.1
2018-Jun-29 15:01N 58°27' E 005°59'0 0.0
2018-Jun-29 14:31N 58°27' E 005°59'1 1.1
2018-Jun-29 14:00N 58°27' E 005°60'0 0.1
2018-Jun-29 13:30N 58°27' E 005°60'0 0.0
2018-Jun-29 13:01N 58°27' E 005°60'0 0.0
2018-Jun-29 12:31N 58°27' E 005°60'0 0.0
2018-Jun-29 12:00N 58°27' E 005°60'0 0.0
2018-Jun-29 11:30N 58°27' E 005°60'0 0.0
2018-Jun-29 11:01N 58°27' E 005°60'0 0.0
2018-Jun-29 10:30N 58°27' E 005°60'0 0.0
2018-Jun-29 10:01N 58°27' E 005°60'0 0.0
2018-Jun-29 09:31N 58°27' E 005°60'0 0.0
2018-Jun-29 09:00N 58°27' E 005°60'0 0.0
2018-Jun-29 08:31N 58°27' E 005°60'0 0.0
2018-Jun-29 08:01N 58°27' E 005°60'2 4.4
2018-Jun-29 07:31N 58°25' E 005°60'510.0
2018-Jun-29 07:01N 58°26' E 005°50'611.6
2018-Jun-29 06:30N 58°29' E 005°41'611.1
2018-Jun-29 06:01N 58°32' E 005°32'510.8
2018-Jun-29 05:31N 58°35' E 005°24'611.4
2018-Jun-29 05:00N 58°39' E 005°15'611.7
2018-Jun-29 04:29N 58°43' E 005°06'611.8
2018-Jun-29 04:00N 58°46' E 004°58'611.6
2018-Jun-29 03:28N 58°51' E 004°49'611.9
2018-Jun-29 03:00N 58°55' E 004°42'1611.8
2018-Jun-29 01:41N 59°06' E 004°21'211.3
2018-Jun-29 01:28N 59°08' E 004°18'47 3.3
2018-Jun-28 11:15N 59°29' E 002°57'3 6.3
2018-Jun-28 10:46N 59°26' E 002°58'0 0.0
2018-Jun-28 09:34N 59°26' E 002°58'0 1.0
2018-Jun-28 09:24N 59°26' E 002°58'2 3.2
2018-Jun-28 08:38N 59°28' E 003°01'2 8.4
2018-Jun-28 08:24N 59°28' E 003°04'4 7.8
2018-Jun-28 07:55N 59°28' E 002°57'2 4.7
2018-Jun-28 07:30N 59°26' E 002°57'1 1.8
2018-Jun-28 06:48N 59°26' E 002°59'3 7.2
2018-Jun-28 06:23N 59°27' E 002°54'510.1
2018-Jun-28 05:56N 59°29' E 002°45'1 2.3
2018-Jun-28 05:27N 59°28' E 002°43'0 0.4
2018-Jun-28 04:44N 59°28' E 002°43'0 0.4
2018-Jun-28 04:30N 59°28' E 002°42'0 0.5
2018-Jun-28 04:00N 59°28' E 002°42'0 0.5
2018-Jun-28 03:30N 59°28' E 002°42'0 0.5
2018-Jun-28 03:01N 59°28' E 002°41'0 0.6
2018-Jun-28 02:30N 59°28' E 002°41'0 0.6
2018-Jun-28 02:01N 59°29' E 002°40'0 0.7
2018-Jun-28 01:30N 59°29' E 002°39'0 0.7
2018-Jun-28 01:00N 59°29' E 002°39'0 0.6
2018-Jun-28 00:27N 59°29' E 002°38'0 0.6
2018-Jun-27 23:38N 59°29' E 002°37'1 0.4
2018-Jun-27 21:45N 59°29' E 002°36'0 0.4
2018-Jun-27 21:21N 59°28' E 002°35'0 0.5
2018-Jun-27 20:53N 59°28' E 002°35'3 1.7
2018-Jun-27 19:10N 59°31' E 002°32'0 1.0
2018-Jun-27 18:57N 59°30' E 002°32'0 0.5
2018-Jun-27 18:24N 59°30' E 002°32'0 0.5
2018-Jun-27 17:54N 59°30' E 002°32'1 1.2
2018-Jun-27 17:27N 59°30' E 002°33'9 8.1
2018-Jun-27 16:22N 59°31' E 002°50'149 6.8
2018-Jun-26 18:23N 61°52' E 004°25'411.1
2018-Jun-26 18:00N 61°56' E 004°31'611.3
2018-Jun-26 17:30N 61°60' E 004°39'1110.9
2018-Jun-26 16:30N 62°08' E 004°54'510.5
2018-Jun-26 16:00N 62°12' E 005°02'610.6
2018-Jun-26 15:29N 62°15' E 005°11'510.8
2018-Jun-26 15:00N 62°19' E 005°19'510.4
2018-Jun-26 14:30N 62°22' E 005°28'4 7.5
2018-Jun-26 13:59N 62°22' E 005°36'2 3.5
2018-Jun-26 13:30N 62°20' E 005°38'0 0.1
2018-Jun-26 13:00N 62°20' E 005°38'0 0.0
2018-Jun-26 12:31N 62°20' E 005°38'0 0.0
2018-Jun-26 12:00N 62°20' E 005°38'0 0.0
2018-Jun-26 11:28N 62°20' E 005°38'0 0.0
2018-Jun-26 11:01N 62°20' E 005°38'0 0.0
2018-Jun-26 10:31N 62°20' E 005°38'0 0.0
2018-Jun-26 10:00N 62°20' E 005°38'0 0.0
2018-Jun-26 09:30N 62°20' E 005°38'0 0.0
2018-Jun-26 09:00N 62°20' E 005°38'0 0.0
2018-Jun-26 08:30N 62°20' E 005°38'0 0.0
2018-Jun-26 08:00N 62°20' E 005°38'0 0.0
2018-Jun-26 07:30N 62°20' E 005°38'0 0.0
2018-Jun-26 07:00N 62°20' E 005°38'0 0.0
2018-Jun-26 06:31N 62°20' E 005°38'0 0.0
2018-Jun-26 06:00N 62°20' E 005°38'0 0.0
2018-Jun-26 05:30N 62°20' E 005°38'0 0.0
2018-Jun-26 05:00N 62°20' E 005°38'2 3.1
2018-Jun-26 04:30N 62°22' E 005°36'510.1
2018-Jun-26 04:00N 62°22' E 005°25'611.2
2018-Jun-26 03:29N 62°19' E 005°16'511.4
2018-Jun-26 03:00N 62°15' E 005°08'611.8
2018-Jun-26 02:29N 62°10' E 004°59'611.8
2018-Jun-26 02:00N 62°06' E 004°52'611.5
2018-Jun-26 01:30N 62°01' E 004°45'611.1
2018-Jun-26 01:00N 61°57' E 004°37'611.6
2018-Jun-26 00:30N 61°52' E 004°30'  

Dump ship's entire track history